Time;durP1;ratioP1;P1;durP2;ratioP2;P2;SDS_P1;SDS_P2;PMS_P1;PMS_P2;Temp;Humidity;BMP_temperature;BMP_pressure;BME280_temperature;BME280_humidity;BME280_pressure;Samples;Min_cycle;Max_cycle;Signal;HPM_P1;HPM_P2
2023/05/21 00:02:48;;;;;;;2.35;0.98;;;15.40;1.00;;;;;;20729419;28;20034;-43
2023/05/21 00:12:49;;;;;;;2.90;1.20;;;15.50;1.00;;;;;;20705499;28;20062;-43
2023/05/21 00:22:50;;;;;;;2.40;1.13;;;15.50;1.00;;;;;;20721318;28;21778;-43
2023/05/21 00:32:51;;;;;;;3.17;1.10;;;15.50;1.00;;;;;;20726928;28;20484;-44
2023/05/21 00:42:56;;;;;;;2.75;1.40;;;15.40;1.00;;;;;;20727352;28;20045;-43
2023/05/21 00:52:58;;;;;;;2.00;1.17;;;15.40;1.00;;;;;;20718371;28;20041;-43
2023/05/21 01:03:00;;;;;;;3.05;1.65;;;15.50;1.00;;;;;;20725713;28;20506;-44
2023/05/21 01:13:01;;;;;;;4.38;1.27;;;15.40;1.00;;;;;;20721844;28;20064;-43
2023/05/21 01:23:03;;;;;;;4.85;1.67;;;15.40;1.00;;;;;;20722663;28;20505;-43
2023/05/21 01:33:34;;;;;;;4.03;1.48;;;15.40;1.00;;;;;;20716100;28;20052;-43
2023/05/21 01:43:38;;;;;;;2.85;1.67;;;15.30;1.00;;;;;;20708512;28;20053;-44
2023/05/21 01:53:40;;;;;;;3.67;1.33;;;15.30;1.00;;;;;;20710948;28;20103;-42
2023/05/21 02:03:41;;;;;;;2.60;1.25;;;15.40;1.00;;;;;;20708778;28;20033;-43
2023/05/21 02:13:42;;;;;;;3.53;1.70;;;15.40;1.00;;;;;;20714911;28;20046;-44
2023/05/21 02:23:43;;;;;;;4.47;1.88;;;15.30;1.00;;;;;;20711609;28;20038;-44
2023/05/21 02:33:45;;;;;;;3.38;2.13;;;15.30;1.00;;;;;;21084551;23;20037;-44
2023/05/21 02:43:46;;;;;;;2.65;1.50;;;15.20;1.00;;;;;;20863067;28;20033;-43
2023/05/21 02:53:47;;;;;;;3.50;1.95;;;15.10;1.00;;;;;;20878922;28;20408;-43
2023/05/21 03:03:48;;;;;;;3.38;2.08;;;15.00;1.00;;;;;;20880130;28;20049;-44
2023/05/21 03:13:49;;;;;;;2.97;1.52;;;15.00;1.00;;;;;;20859129;28;20055;-44
2023/05/21 03:23:51;;;;;;;3.33;1.60;;;14.90;1.00;;;;;;20869001;28;20499;-43
2023/05/21 03:33:53;;;;;;;3.72;1.90;;;14.90;1.00;;;;;;20880959;28;20067;-44
2023/05/21 03:43:54;;;;;;;3.05;1.80;;;14.90;1.00;;;;;;20946046;28;20032;-43
2023/05/21 03:53:57;;;;;;;4.13;1.65;;;14.90;1.00;;;;;;20947800;28;20045;-44
2023/05/21 04:03:58;;;;;;;2.97;1.73;;;14.80;1.00;;;;;;20910122;28;20033;-43
2023/05/21 04:14:00;;;;;;;5.07;2.08;;;14.80;1.00;;;;;;20954799;28;20041;-43
2023/05/21 04:24:01;;;;;;;3.08;1.63;;;14.90;1.00;;;;;;20955466;28;21434;-43
2023/05/21 04:34:02;;;;;;;4.43;1.95;;;14.90;1.00;;;;;;20957860;28;20059;-44
2023/05/21 04:44:05;;;;;;;3.88;1.70;;;15.00;1.00;;;;;;20947660;28;20042;-45
2023/05/21 04:54:06;;;;;;;4.30;2.28;;;14.90;1.00;;;;;;20951410;28;20036;-44
2023/05/21 05:04:12;;;;;;;4.10;2.28;;;14.70;1.00;;;;;;20952549;28;20032;-44
2023/05/21 05:14:17;;;;;;;3.70;2.28;;;14.70;1.00;;;;;;20918948;28;20420;-44
2023/05/21 05:24:19;;;;;;;5.22;2.00;;;14.80;1.00;;;;;;20944227;28;20037;-44
2023/05/21 05:34:20;;;;;;;3.70;2.22;;;14.90;1.00;;;;;;20939489;28;20483;-44
2023/05/21 05:44:21;;;;;;;5.63;2.28;;;14.90;1.00;;;;;;20946452;28;20039;-44
2023/05/21 05:54:25;;;;;;;6.55;2.40;;;15.00;1.00;;;;;;20937557;28;20036;-44
2023/05/21 06:04:28;;;;;;;5.28;2.97;;;15.10;1.00;;;;;;20947178;28;20390;-44
2023/05/21 06:14:29;;;;;;;3.80;2.30;;;15.20;1.00;;;;;;20927802;28;20465;-44
2023/05/21 06:24:30;;;;;;;4.78;2.72;;;15.30;1.00;;;;;;20847867;23;20046;-80
2023/05/21 06:34:31;;;;;;;5.18;2.53;;;15.30;1.00;;;;;;20741667;28;20040;-78
2023/05/21 06:44:32;;;;;;;4.88;2.55;;;15.40;1.00;;;;;;20751056;28;20041;-79
2023/05/21 06:54:34;;;;;;;4.38;2.55;;;15.40;1.00;;;;;;20717930;28;20048;-78
2023/05/21 07:04:38;;;;;;;5.45;2.88;;;15.70;1.00;;;;;;20721967;28;20460;-81
2023/05/21 07:14:39;;;;;;;4.28;2.22;;;15.90;1.00;;;;;;20748513;28;20056;-78
2023/05/21 07:24:40;;;;;;;4.53;2.78;;;16.10;1.00;;;;;;20765595;28;20057;-78
2023/05/21 07:34:41;;;;;;;5.10;2.15;;;16.10;1.00;;;;;;20816322;28;20159;-79
2023/05/21 07:44:42;;;;;;;4.47;2.70;;;16.20;1.00;;;;;;20817501;28;20032;-78
2023/05/21 07:54:43;;;;;;;6.82;3.28;;;16.50;1.00;;;;;;20832379;28;20052;-79
2023/05/21 08:04:44;;;;;;;5.78;2.63;;;16.90;1.00;;;;;;20859078;28;20037;-75
2023/05/21 08:14:45;;;;;;;4.93;2.80;;;17.20;1.00;;;;;;20811023;28;20053;-76
2023/05/21 08:24:47;;;;;;;4.10;2.38;;;17.50;1.00;;;;;;20823069;28;20056;-77
2023/05/21 08:34:48;;;;;;;4.88;2.47;;;17.80;1.00;;;;;;20791168;28;20128;-76
2023/05/21 08:44:53;;;;;;;5.00;2.75;;;18.10;1.00;;;;;;20836710;28;20048;-77
2023/05/21 08:54:55;;;;;;;5.70;3.08;;;18.10;1.00;;;;;;20820133;28;20032;-75
2023/05/21 09:04:58;;;;;;;4.15;2.53;;;18.10;1.00;;;;;;20818578;28;20033;-79
2023/05/21 09:15:00;;;;;;;5.25;2.88;;;18.00;1.00;;;;;;20792423;28;20049;-76
2023/05/21 09:25:07;;;;;;;7.32;2.75;;;18.00;1.00;;;;;;20788572;28;20049;-78
2023/05/21 09:35:13;;;;;;;8.75;2.65;;;18.10;1.00;;;;;;20779773;28;20044;-78
2023/05/21 09:45:21;;;;;;;4.78;2.47;;;18.20;1.00;;;;;;20824889;28;20040;-80
2023/05/21 09:55:27;;;;;;;7.20;2.80;;;18.20;1.00;;;;;;20797580;28;20420;-77
2023/05/21 10:05:29;;;;;;;7.35;3.40;;;18.50;1.00;;;;;;20805448;28;20395;-74
2023/05/21 10:15:36;;;;;;;8.02;2.60;;;18.90;1.00;;;;;;20788083;28;20591;-77
2023/05/21 10:25:38;;;;;;;5.47;2.60;;;19.10;1.00;;;;;;20810030;28;21923;-74
2023/05/21 10:35:40;;;;;;;4.97;2.70;;;19.10;1.00;;;;;;20805646;28;20451;-74
2023/05/21 10:45:56;;;;;;;5.88;2.47;;;19.50;1.00;;;;;;20817635;28;20098;-77
2023/05/21 10:56:23;;;;;;;6.20;2.58;;;19.50;1.00;;;;;;20779788;28;20053;-74
2023/05/21 11:06:25;;;;;;;5.63;3.10;;;19.80;1.00;;;;;;20821977;28;20355;-74
2023/05/21 11:16:28;;;;;;;4.22;2.50;;;20.00;1.00;;;;;;20819221;28;20041;-74
2023/05/21 11:26:49;;;;;;;5.13;3.25;;;20.20;1.00;;;;;;20833938;28;20045;-77
2023/05/21 11:47:18;;;;;;;5.57;2.42;;;19.90;1.00;;;;;;20823620;28;20041;-76
2023/05/21 11:57:19;;;;;;;3.97;2.50;;;20.20;1.00;;;;;;20838295;28;20052;-82
2023/05/21 12:07:21;;;;;;;7.10;2.80;;;20.60;1.00;;;;;;20837417;28;20047;-84
2023/05/21 12:17:23;;;;;;;5.65;2.65;;;20.70;1.00;;;;;;20818177;28;20045;-85
2023/05/21 12:27:27;;;;;;;4.03;2.80;;;20.30;1.00;;;;;;20818468;28;20491;-79
2023/05/21 12:37:34;;;;;;;5.50;2.85;;;20.20;1.00;;;;;;20816896;28;20128;-80
2023/05/21 12:47:35;;;;;;;4.63;3.00;;;20.20;1.00;;;;;;20871444;28;20156;-79
2023/05/21 12:57:37;;;;;;;4.90;2.42;;;20.20;1.00;;;;;;20802713;28;20447;-83
2023/05/21 13:07:38;;;;;;;5.80;3.25;;;20.50;1.00;;;;;;20809723;28;21317;-86
2023/05/21 13:17:39;;;;;;;5.32;2.50;;;20.80;1.00;;;;;;20828761;28;20040;-81
2023/05/21 13:27:42;;;;;;;5.78;3.13;;;21.00;1.00;;;;;;20831061;28;20547;-79
2023/05/21 13:37:43;;;;;;;6.93;2.70;;;21.20;1.00;;;;;;20815011;28;20554;-83
2023/05/21 13:47:46;;;;;;;7.90;2.50;;;21.00;1.00;;;;;;20851326;28;20093;-83
2023/05/21 13:57:47;;;;;;;8.30;2.53;;;20.70;1.00;;;;;;20871268;28;20112;-83
2023/05/21 14:07:48;;;;;;;4.18;2.30;;;20.70;1.00;;;;;;20831097;28;20588;-85
2023/05/21 14:17:51;;;;;;;4.30;2.05;;;20.50;1.00;;;;;;20829055;28;20051;-84
2023/05/21 14:27:53;;;;;;;7.50;1.85;;;20.60;1.00;;;;;;20862901;28;20045;-81
2023/05/21 14:37:54;;;;;;;4.80;1.85;;;20.40;1.00;;;;;;20852762;28;20113;-82
2023/05/21 14:47:55;;;;;;;4.03;1.70;;;20.40;1.00;;;;;;20871052;28;20042;-82
2023/05/21 14:57:58;;;;;;;4.50;1.92;;;20.00;1.00;;;;;;20813114;28;20057;-85
2023/05/21 15:07:59;;;;;;;4.70;2.28;;;20.10;1.00;;;;;;20846776;28;20037;-79
2023/05/21 15:18:00;;;;;;;6.90;2.70;;;20.20;1.00;;;;;;20822726;28;20043;-85
2023/05/21 15:28:01;;;;;;;5.13;2.25;;;20.10;1.00;;;;;;20798641;28;20052;-81
2023/05/21 15:38:02;;;;;;;5.38;2.60;;;20.10;1.00;;;;;;20816353;28;20056;-81
2023/05/21 15:48:03;;;;;;;5.43;2.55;;;20.20;1.00;;;;;;20834978;28;20037;-79
2023/05/21 15:58:05;;;;;;;4.10;2.47;;;20.20;1.00;;;;;;20823620;28;20037;-81
2023/05/21 16:08:06;;;;;;;5.45;2.28;;;20.00;1.00;;;;;;20815321;28;20036;-80
2023/05/21 16:18:08;;;;;;;3.85;1.95;;;19.80;1.00;;;;;;20825906;28;20048;-78
2023/05/21 16:28:10;;;;;;;6.40;2.38;;;19.80;1.00;;;;;;20839631;28;20041;-81
2023/05/21 16:38:11;;;;;;;4.10;2.10;;;19.70;1.00;;;;;;20810114;28;20042;-79
2023/05/21 16:48:13;;;;;;;4.22;2.40;;;19.50;1.00;;;;;;20832212;28;20033;-84
2023/05/21 16:58:14;;;;;;;7.78;3.28;;;19.30;1.00;;;;;;20851552;28;20041;-83
2023/05/21 17:08:15;;;;;;;9.38;3.05;;;19.10;1.00;;;;;;20839402;28;20047;-84
2023/05/21 17:18:16;;;;;;;7.38;3.47;;;19.00;1.00;;;;;;20833382;28;20520;-81
2023/05/21 17:28:18;;;;;;;9.35;3.53;;;19.00;1.00;;;;;;20859831;28;20051;-84
2023/05/21 17:38:20;;;;;;;9.25;3.95;;;18.90;1.00;;;;;;20816686;28;20041;-82
2023/05/21 17:48:21;;;;;;;6.28;3.70;;;18.90;1.00;;;;;;20836357;28;20052;-84
2023/05/21 17:58:23;;;;;;;7.65;3.92;;;18.90;1.00;;;;;;20807924;28;20578;-84
2023/05/21 18:08:25;;;;;;;8.65;4.05;;;18.70;1.00;;;;;;20827477;28;20037;-81
2023/05/21 18:18:26;;;;;;;9.38;3.92;;;18.70;1.00;;;;;;20840833;28;20053;-79
2023/05/21 18:28:30;;;;;;;6.00;3.05;;;18.70;1.00;;;;;;20817918;28;20102;-80
2023/05/21 18:38:32;;;;;;;6.93;4.20;;;18.60;1.00;;;;;;20841546;28;20056;-80
2023/05/21 18:48:33;;;;;;;8.18;3.88;;;18.40;1.00;;;;;;20808553;28;20041;-80
2023/05/21 18:58:35;;;;;;;6.57;3.60;;;18.30;1.00;;;;;;20823456;28;20033;-80
2023/05/21 19:08:36;;;;;;;8.50;4.18;;;18.20;1.00;;;;;;20803575;28;20040;-80
2023/05/21 19:18:39;;;;;;;10.32;4.63;;;18.10;1.00;;;;;;20820321;28;20037;-79
2023/05/21 19:28:40;;;;;;;8.90;4.68;;;18.10;1.00;;;;;;20789691;28;20042;-79
2023/05/21 19:38:46;;;;;;;8.20;3.95;;;17.90;1.00;;;;;;20808246;28;20396;-79
2023/05/21 19:48:50;;;;;;;7.27;4.07;;;17.80;1.00;;;;;;20812630;28;20048;-80
2023/05/21 19:58:51;;;;;;;8.98;4.68;;;17.60;1.00;;;;;;20814253;28;20145;-80
2023/05/21 20:08:52;;;;;;;7.78;4.22;;;17.50;1.00;;;;;;20838648;28;20048;-80
2023/05/21 20:18:57;;;;;;;10.25;5.18;;;17.30;1.00;;;;;;20821924;28;20049;-80
2023/05/21 20:28:58;;;;;;;10.07;4.80;;;17.20;1.00;;;;;;20820822;28;20047;-79
2023/05/21 20:39:02;;;;;;;8.27;4.65;;;17.10;1.00;;;;;;20829783;28;20048;-79
2023/05/21 20:49:03;;;;;;;14.75;5.57;;;17.00;1.00;;;;;;20815247;28;20880;-80
2023/05/21 20:59:05;;;;;;;9.18;5.25;;;16.90;1.00;;;;;;20835329;28;20044;-80
2023/05/21 21:09:07;;;;;;;10.52;5.57;;;16.70;1.00;;;;;;20785294;28;20037;-80
2023/05/21 21:19:08;;;;;;;7.40;4.50;;;16.60;1.00;;;;;;20834958;28;20052;-79
2023/05/21 21:29:10;;;;;;;11.95;5.50;;;16.40;1.00;;;;;;20815975;28;20056;-80
2023/05/21 21:39:11;;;;;;;9.82;5.40;;;16.30;1.00;;;;;;20799669;28;20049;-79
2023/05/21 21:49:13;;;;;;;12.60;6.07;;;16.10;1.00;;;;;;20799607;28;20037;-81
2023/05/21 21:59:14;;;;;;;9.10;4.82;;;16.00;1.00;;;;;;20809653;28;20365;-79
2023/05/21 22:09:16;;;;;;;9.73;5.55;;;15.90;1.00;;;;;;20812986;28;20511;-80
2023/05/21 22:19:19;;;;;;;11.93;5.47;;;15.80;1.00;;;;;;20828570;28;20052;-81
2023/05/21 22:29:21;;;;;;;9.93;5.63;;;15.70;2.20;;;;;;20747791;28;20512;-81
2023/05/21 22:39:22;;;;;;;10.68;5.68;;;15.60;2.90;;;;;;20753907;28;20048;-80
2023/05/21 22:49:23;;;;;;;10.57;5.38;;;15.50;6.50;;;;;;20760338;28;20042;-81
2023/05/21 22:59:24;;;;;;;13.68;6.43;;;15.40;11.80;;;;;;20754217;28;20042;-81
2023/05/21 23:09:25;;;;;;;9.30;5.40;;;15.40;17.70;;;;;;20751045;28;20042;-81
2023/05/21 23:19:28;;;;;;;15.35;7.40;;;15.40;25.00;;;;;;20768206;28;20638;-79
2023/05/21 23:29:29;;;;;;;12.02;5.95;;;15.30;27.90;;;;;;20834064;28;20155;-80
2023/05/21 23:39:30;;;;;;;13.20;7.45;;;15.20;30.20;;;;;;20847409;28;20045;-81
2023/05/21 23:49:31;;;;;;;13.73;6.68;;;15.20;36.60;;;;;;20818615;28;20057;-82
2023/05/21 23:59:32;;;;;;;11.55;7.22;;;15.10;34.60;;;;;;20849094;28;20056;-81
